Time;durP1;ratioP1;P1;durP2;ratioP2;P2;SDS_P1;SDS_P2;PMS_P1;PMS_P2;Temp;Humidity;BMP_temperature;BMP_pressure;BME280_temperature;BME280_humidity;BME280_pressure;Samples;Min_cycle;Max_cycle;Signal;HPM_P1;HPM_P2
2023/10/23 00:00:43;;;;;;;;;8.00;6.33;;;;;;;;5081622;28;45373;-80
2023/10/23 00:03:09;;;;;;;;;4.00;4.00;;;;;;;;5081492;28;45255;-80
2023/10/23 00:05:34;;;;;;;;;4.00;4.00;;;;;;;;5081171;28;45260;-80
2023/10/23 00:08:00;;;;;;;;;4.00;4.00;;;;;;;;5081498;28;45202;-80
2023/10/23 00:10:25;;;;;;;;;7.00;5.00;;;;;;;;5080238;28;45369;-80
2023/10/23 00:12:50;;;;;;;;;6.67;4.33;;;;;;;;5080018;28;45181;-80
2023/10/23 00:15:15;;;;;;;;;4.00;3.00;;;;;;;;5081500;28;45395;-80
2023/10/23 00:17:40;;;;;;;;;3.00;3.00;;;;;;;;5081059;28;46308;-80
2023/10/23 00:20:06;;;;;;;;;2.67;2.67;;;;;;;;5079670;28;45365;-79
2023/10/23 00:22:31;;;;;;;;;5.67;3.67;;;;;;;;5081009;28;45294;-80
2023/10/23 00:24:56;;;;;;;;;4.00;4.00;;;;;;;;5079107;28;46243;-80
2023/10/23 00:27:21;;;;;;;;;4.67;4.00;;;;;;;;5079171;28;47435;-80
2023/10/23 00:29:47;;;;;;;;;3.00;3.00;;;;;;;;5092283;27;46131;-80
2023/10/23 00:32:12;;;;;;;;;5.00;3.00;;;;;;;;5100240;27;45635;-80
2023/10/23 00:34:37;;;;;;;;;3.67;3.67;;;;;;;;5101462;27;45317;-80
2023/10/23 00:37:02;;;;;;;;;5.00;4.00;;;;;;;;5094036;27;47011;-80
2023/10/23 00:39:27;;;;;;;;;4.00;4.00;;;;;;;;5068829;28;45273;-80
2023/10/23 00:41:53;;;;;;;;;4.00;3.00;;;;;;;;5080700;28;45596;-80
2023/10/23 00:44:18;;;;;;;;;3.33;2.67;;;;;;;;5078994;28;46295;-80
2023/10/23 00:46:43;;;;;;;;;4.00;4.00;;;;;;;;5080502;28;45390;-80
2023/10/23 00:49:09;;;;;;;;;7.33;4.67;;;;;;;;5079194;28;45390;-80
2023/10/23 00:51:34;;;;;;;;;3.00;3.00;;;;;;;;5077902;28;45754;-80
2023/10/23 00:54:01;;;;;;;;;6.00;3.00;;;;;;;;5079363;28;46446;-80
2023/10/23 00:56:27;;;;;;;;;0.33;0.33;;;;;;;;5080829;28;46155;-79
2023/10/23 00:58:52;;;;;;;;;4.67;4.67;;;;;;;;5079382;28;45437;-80
2023/10/23 01:01:17;;;;;;;;;3.00;3.00;;;;;;;;5079277;28;45314;-80
2023/10/23 01:03:43;;;;;;;;;5.33;5.00;;;;;;;;5080385;28;45457;-80
2023/10/23 01:06:09;;;;;;;;;3.33;3.00;;;;;;;;5080049;28;46136;-80
2023/10/23 01:08:34;;;;;;;;;7.00;4.00;;;;;;;;5080574;28;45270;-80
2023/10/23 01:10:59;;;;;;;;;4.33;3.67;;;;;;;;5080736;28;45257;-80
2023/10/23 01:13:25;;;;;;;;;3.00;3.00;;;;;;;;5079033;28;46086;-80
2023/10/23 01:15:51;;;;;;;;;5.00;4.00;;;;;;;;5079115;28;47216;-80
2023/10/23 01:18:16;;;;;;;;;3.00;3.00;;;;;;;;5080233;28;45297;-80
2023/10/23 01:20:41;;;;;;;;;3.00;2.00;;;;;;;;5080491;28;45203;-80
2023/10/23 01:23:08;;;;;;;;;2.00;2.00;;;;;;;;5080363;28;45516;-80
2023/10/23 01:25:33;;;;;;;;;2.00;2.00;;;;;;;;5080290;28;46042;-80
2023/10/23 01:27:58;;;;;;;;;2.33;2.33;;;;;;;;5078951;28;45478;-80
2023/10/23 01:30:23;;;;;;;;;4.00;4.00;;;;;;;;5098090;27;45243;-80
2023/10/23 01:32:49;;;;;;;;;4.00;3.00;;;;;;;;5099075;27;47131;-80
2023/10/23 01:35:14;;;;;;;;;2.67;2.67;;;;;;;;5099207;27;47345;-79
2023/10/23 01:37:41;;;;;;;;;5.67;4.33;;;;;;;;5100478;27;45373;-79
2023/10/23 01:40:07;;;;;;;;;5.67;5.00;;;;;;;;5100735;27;45411;-80
2023/10/23 01:42:32;;;;;;;;;3.33;3.33;;;;;;;;5100319;27;45306;-80
2023/10/23 01:44:57;;;;;;;;;6.00;3.33;;;;;;;;5099018;27;47080;-80
2023/10/23 01:47:23;;;;;;;;;4.67;4.67;;;;;;;;5099904;27;45405;-80
2023/10/23 01:49:49;;;;;;;;;5.00;4.00;;;;;;;;5099270;27;45307;-80
2023/10/23 01:52:14;;;;;;;;;2.67;2.67;;;;;;;;5100217;27;45251;-80
2023/10/23 01:54:39;;;;;;;;;5.00;3.67;;;;;;;;5098967;27;47175;-80
2023/10/23 01:57:04;;;;;;;;;5.00;5.00;;;;;;;;5084872;27;46126;-80
2023/10/23 01:59:29;;;;;;;;;5.67;5.67;;;;;;;;5078733;28;45294;-79
2023/10/23 02:01:54;;;;;;;;;9.33;8.33;;;;;;;;5080598;28;46223;-79
2023/10/23 02:04:20;;;;;;;;;7.67;7.33;;;;;;;;5085584;28;45260;-79
2023/10/23 02:06:45;;;;;;;;;7.67;6.33;;;;;;;;5086561;28;45291;-79
2023/10/23 02:09:12;;;;;;;;;6.33;6.33;;;;;;;;5085228;28;45298;-80
2023/10/23 02:11:37;;;;;;;;;6.00;5.33;;;;;;;;5086401;28;45292;-80
2023/10/23 02:14:02;;;;;;;;;6.33;5.00;;;;;;;;5084690;28;47204;-79
2023/10/23 02:16:27;;;;;;;;;8.67;7.00;;;;;;;;5086536;28;45317;-80
2023/10/23 02:18:53;;;;;;;;;7.00;5.00;;;;;;;;5084961;28;45319;-80
2023/10/23 02:21:18;;;;;;;;;4.67;4.67;;;;;;;;5084863;28;46412;-80
2023/10/23 02:23:43;;;;;;;;;4.33;4.33;;;;;;;;5084920;28;48163;-80
2023/10/23 02:26:08;;;;;;;;;4.00;4.00;;;;;;;;5086211;28;45538;-79
2023/10/23 02:28:33;;;;;;;;;6.00;6.00;;;;;;;;5087824;27;45646;-80
2023/10/23 02:31:02;;;;;;;;;4.67;4.00;;;;;;;;5105120;27;47024;-80
2023/10/23 02:33:28;;;;;;;;;3.67;3.67;;;;;;;;5104784;27;47587;-79
2023/10/23 02:35:53;;;;;;;;;5.00;5.00;;;;;;;;5106550;27;45390;-80
2023/10/23 02:38:18;;;;;;;;;3.67;3.00;;;;;;;;5105483;27;45430;-80
2023/10/23 02:40:50;;;;;;;;;6.33;5.33;;;;;;;;5106583;27;45198;-79
2023/10/23 02:43:15;;;;;;;;;3.00;3.00;;;;;;;;5106677;27;45440;-80
2023/10/23 02:45:40;;;;;;;;;5.00;5.00;;;;;;;;5105279;27;45366;-80
2023/10/23 02:48:06;;;;;;;;;7.00;4.00;;;;;;;;5106121;27;45466;-79
2023/10/23 02:50:31;;;;;;;;;5.67;5.67;;;;;;;;5104876;27;46007;-80
2023/10/23 02:52:57;;;;;;;;;4.00;4.00;;;;;;;;5106323;27;46478;-80
2023/10/23 02:55:24;;;;;;;;;8.00;6.33;;;;;;;;5105045;27;45521;-80
2023/10/23 02:57:50;;;;;;;;;4.33;4.00;;;;;;;;5106555;27;45291;-80
2023/10/23 03:00:15;;;;;;;;;5.00;5.00;;;;;;;;5106454;27;45210;-80
2023/10/23 03:02:43;;;;;;;;;5.67;5.67;;;;;;;;5104768;27;47186;-80
2023/10/23 03:05:08;;;;;;;;;4.00;4.00;;;;;;;;5104977;27;45576;-80
2023/10/23 03:07:33;;;;;;;;;5.67;5.67;;;;;;;;5106331;27;45487;-80
2023/10/23 03:09:58;;;;;;;;;4.00;4.00;;;;;;;;5104883;27;46089;-80
2023/10/23 03:12:23;;;;;;;;;7.00;4.33;;;;;;;;5105829;27;45397;-80
2023/10/23 03:14:49;;;;;;;;;5.00;5.00;;;;;;;;5100569;27;45763;-80
2023/10/23 03:17:14;;;;;;;;;6.33;5.67;;;;;;;;5102784;27;45319;-80
2023/10/23 03:19:39;;;;;;;;;9.67;9.00;;;;;;;;5102879;27;45476;-80
2023/10/23 03:22:04;;;;;;;;;7.67;7.00;;;;;;;;5101206;27;48293;-80
2023/10/23 03:24:29;;;;;;;;;9.33;9.33;;;;;;;;5101507;27;45888;-80
2023/10/23 03:26:54;;;;;;;;;8.00;7.33;;;;;;;;5102768;27;45358;-80
2023/10/23 03:29:20;;;;;;;;;8.00;6.33;;;;;;;;5092324;27;47330;-80
2023/10/23 03:31:45;;;;;;;;;7.00;7.00;;;;;;;;5080797;28;47490;-80
2023/10/23 03:34:10;;;;;;;;;9.00;9.00;;;;;;;;5076154;28;45362;-81
2023/10/23 03:36:35;;;;;;;;;8.67;8.00;;;;;;;;5061230;28;45555;-80
2023/10/23 03:39:00;;;;;;;;;6.33;5.67;;;;;;;;5061231;28;45826;-81
2023/10/23 03:41:26;;;;;;;;;5.67;5.67;;;;;;;;5059059;28;48045;-79
2023/10/23 03:43:51;;;;;;;;;7.67;7.00;;;;;;;;5060375;28;45394;-80
2023/10/23 03:46:16;;;;;;;;;8.00;6.33;;;;;;;;5059903;28;45404;-80
2023/10/23 03:48:41;;;;;;;;;5.67;5.67;;;;;;;;5060016;28;46832;-80
2023/10/23 03:51:06;;;;;;;;;8.00;8.00;;;;;;;;5060112;28;47315;-79
2023/10/23 03:53:32;;;;;;;;;5.00;4.00;;;;;;;;5059971;28;46106;-80
2023/10/23 03:55:57;;;;;;;;;3.67;3.67;;;;;;;;5060043;28;45343;-80
2023/10/23 03:58:22;;;;;;;;;4.00;4.00;;;;;;;;5061333;28;45295;-80
2023/10/23 04:00:51;;;;;;;;;5.67;5.00;;;;;;;;5061357;28;45405;-80
2023/10/23 04:03:16;;;;;;;;;4.67;4.67;;;;;;;;5059767;28;45305;-80
2023/10/23 04:05:41;;;;;;;;;5.00;4.00;;;;;;;;5059918;28;45395;-79
2023/10/23 04:08:06;;;;;;;;;4.00;4.00;;;;;;;;5059839;28;46047;-79
2023/10/23 04:10:31;;;;;;;;;3.00;3.00;;;;;;;;5061140;28;46147;-80
2023/10/23 04:12:57;;;;;;;;;4.33;4.33;;;;;;;;5059826;28;45539;-80
2023/10/23 04:15:23;;;;;;;;;6.00;4.00;;;;;;;;5061324;28;45277;-80
2023/10/23 04:17:48;;;;;;;;;5.67;5.00;;;;;;;;5060765;28;45260;-81
2023/10/23 04:20:13;;;;;;;;;5.33;3.00;;;;;;;;5061221;28;46200;-81
2023/10/23 04:22:38;;;;;;;;;4.00;4.00;;;;;;;;5060863;28;45441;-80
2023/10/23 04:25:04;;;;;;;;;5.33;5.33;;;;;;;;5059601;28;45382;-81
2023/10/23 04:27:29;;;;;;;;;4.67;4.67;;;;;;;;5060860;28;45311;-80
2023/10/23 04:29:56;;;;;;;;;4.00;4.00;;;;;;;;5088065;27;46348;-80
2023/10/23 04:32:21;;;;;;;;;4.00;4.00;;;;;;;;5100072;27;45314;-81
2023/10/23 04:34:46;;;;;;;;;6.33;5.67;;;;;;;;5101748;27;45458;-80
2023/10/23 04:37:12;;;;;;;;;4.67;4.67;;;;;;;;5100218;27;47070;-80
2023/10/23 04:39:37;;;;;;;;;7.67;4.67;;;;;;;;5100121;27;47150;-80
2023/10/23 04:42:02;;;;;;;;;5.00;4.00;;;;;;;;5100297;27;45710;-81
2023/10/23 04:44:27;;;;;;;;;5.00;5.00;;;;;;;;5101735;27;45656;-81
2023/10/23 04:46:52;;;;;;;;;5.00;5.00;;;;;;;;5099749;27;46151;-80
2023/10/23 04:49:18;;;;;;;;;6.33;5.00;;;;;;;;5086992;27;45295;-81
2023/10/23 04:51:43;;;;;;;;;3.67;2.67;;;;;;;;5080255;28;45441;-80
2023/10/23 04:54:08;;;;;;;;;4.00;3.00;;;;;;;;5078470;28;45523;-81
2023/10/23 04:56:33;;;;;;;;;5.00;4.67;;;;;;;;5078965;28;46054;-80
2023/10/23 04:58:58;;;;;;;;;4.00;4.00;;;;;;;;5079183;28;48091;-80
2023/10/23 05:01:24;;;;;;;;;4.33;4.00;;;;;;;;5080852;28;45141;-81
2023/10/23 05:03:49;;;;;;;;;3.33;3.33;;;;;;;;5079243;28;45252;-81
2023/10/23 05:06:14;;;;;;;;;7.00;4.67;;;;;;;;5080462;28;45379;-81
2023/10/23 05:08:39;;;;;;;;;3.00;3.00;;;;;;;;5080725;28;45347;-81
2023/10/23 05:11:08;;;;;;;;;3.67;3.00;;;;;;;;5080645;28;45218;-81
2023/10/23 05:13:33;;;;;;;;;3.33;3.33;;;;;;;;5079133;28;45299;-80
2023/10/23 05:16:05;;;;;;;;;2.00;2.00;;;;;;;;5079050;28;46308;-80
2023/10/23 05:18:31;;;;;;;;;4.33;4.00;;;;;;;;5080252;28;45393;-81
2023/10/23 05:20:56;;;;;;;;;3.00;3.00;;;;;;;;5078333;28;45337;-80
2023/10/23 05:23:21;;;;;;;;;4.33;4.33;;;;;;;;5080563;28;45393;-81
2023/10/23 05:25:47;;;;;;;;;3.00;3.00;;;;;;;;5074806;28;45796;-83
2023/10/23 05:28:12;;;;;;;;;7.33;3.00;;;;;;;;5079802;28;45423;-82
2023/10/23 05:30:37;;;;;;;;;5.33;5.33;;;;;;;;5098531;27;45216;-82
2023/10/23 05:33:03;;;;;;;;;4.00;2.00;;;;;;;;5099626;27;45589;-82
2023/10/23 05:35:28;;;;;;;;;4.33;4.33;;;;;;;;5099017;27;46211;-82
2023/10/23 05:37:53;;;;;;;;;3.67;3.67;;;;;;;;5098745;27;48424;-83
2023/10/23 05:40:18;;;;;;;;;4.00;4.00;;;;;;;;5100701;27;45309;-82
2023/10/23 05:42:44;;;;;;;;;3.00;3.00;;;;;;;;5100812;27;45483;-84
2023/10/23 05:45:09;;;;;;;;;2.00;2.00;;;;;;;;5064271;27;46269;-82
2023/10/23 05:47:34;;;;;;;;;4.00;3.00;;;;;;;;5059513;28;45385;-80
2023/10/23 05:49:59;;;;;;;;;3.33;1.67;;;;;;;;5064343;28;45461;-82
2023/10/23 05:52:24;;;;;;;;;2.33;2.33;;;;;;;;5065338;28;45327;-82
2023/10/23 05:54:50;;;;;;;;;2.00;2.00;;;;;;;;5074167;28;45705;-80
2023/10/23 05:57:15;;;;;;;;;3.00;2.00;;;;;;;;5058232;28;47844;-79
2023/10/23 05:59:40;;;;;;;;;2.00;2.00;;;;;;;;5058279;28;45307;-79
2023/10/23 06:02:05;;;;;;;;;9.33;9.00;;;;;;;;5060347;28;45562;-82
2023/10/23 06:04:30;;;;;;;;;2.33;2.00;;;;;;;;5058129;28;46129;-81
2023/10/23 06:06:55;;;;;;;;;2.00;2.00;;;;;;;;5057735;28;46879;-81
2023/10/23 06:09:21;;;;;;;;;3.00;2.00;;;;;;;;5061578;28;45718;-84
2023/10/23 06:11:46;;;;;;;;;4.67;3.00;;;;;;;;5078409;28;45344;-81
2023/10/23 06:14:11;;;;;;;;;5.33;4.00;;;;;;;;5078321;28;47261;-81
2023/10/23 06:16:36;;;;;;;;;4.00;3.00;;;;;;;;5079816;28;46272;-85
2023/10/23 06:19:02;;;;;;;;;1.00;1.00;;;;;;;;5077973;28;45339;-80
2023/10/23 06:21:27;;;;;;;;;3.33;2.00;;;;;;;;5080813;27;45289;-80
2023/10/23 06:23:52;;;;;;;;;1.00;1.00;;;;;;;;5080464;27;45260;-80
2023/10/23 06:26:18;;;;;;;;;3.00;1.00;;;;;;;;5079819;27;45941;-80
2023/10/23 06:28:43;;;;;;;;;2.00;2.00;;;;;;;;5080349;27;45317;-81
2023/10/23 06:31:10;;;;;;;;;3.67;3.67;;;;;;;;5069889;28;46193;-81
2023/10/23 06:33:36;;;;;;;;;5.00;3.00;;;;;;;;5070697;28;45445;-81
2023/10/23 06:36:01;;;;;;;;;4.33;4.33;;;;;;;;5074658;28;45278;-81
2023/10/23 06:38:26;;;;;;;;;3.00;3.00;;;;;;;;5066209;28;45817;-81
2023/10/23 06:40:51;;;;;;;;;4.33;2.00;;;;;;;;5069424;28;45339;-81
2023/10/23 06:43:17;;;;;;;;;3.00;3.00;;;;;;;;5067253;28;45853;-79
2023/10/23 06:45:42;;;;;;;;;5.00;3.67;;;;;;;;5066539;28;48173;-78
2023/10/23 06:48:07;;;;;;;;;4.00;4.00;;;;;;;;5069198;28;45259;-77
2023/10/23 06:50:33;;;;;;;;;5.33;3.00;;;;;;;;5071296;28;45322;-78
2023/10/23 06:52:58;;;;;;;;;4.00;4.00;;;;;;;;5076071;28;45564;-77
2023/10/23 06:55:24;;;;;;;;;3.00;3.00;;;;;;;;5071991;28;45434;-81
2023/10/23 06:57:50;;;;;;;;;4.00;4.00;;;;;;;;5072092;28;45442;-81
2023/10/23 07:00:15;;;;;;;;;7.00;5.00;;;;;;;;5062363;28;45294;-79
2023/10/23 07:02:40;;;;;;;;;3.67;3.67;;;;;;;;5060805;28;46332;-79
2023/10/23 07:05:05;;;;;;;;;6.33;4.00;;;;;;;;5062227;28;46215;-75
2023/10/23 07:07:31;;;;;;;;;3.00;3.00;;;;;;;;5061613;28;45449;-75
2023/10/23 07:09:58;;;;;;;;;4.67;3.00;;;;;;;;5061863;28;45341;-73
2023/10/23 07:12:24;;;;;;;;;5.67;4.33;;;;;;;;5060558;28;45355;-74
2023/10/23 07:14:49;;;;;;;;;6.00;5.00;;;;;;;;5061902;28;45434;-74
2023/10/23 07:17:14;;;;;;;;;5.00;5.00;;;;;;;;5061947;28;45242;-75
2023/10/23 07:19:40;;;;;;;;;5.33;5.00;;;;;;;;5060364;28;45354;-74
2023/10/23 07:22:05;;;;;;;;;5.00;5.00;;;;;;;;5061685;28;45363;-74
2023/10/23 07:24:30;;;;;;;;;6.00;5.00;;;;;;;;5062051;28;45320;-73
2023/10/23 07:26:55;;;;;;;;;4.00;4.00;;;;;;;;5072500;28;45458;-74
2023/10/23 07:29:21;;;;;;;;;5.33;5.00;;;;;;;;5080806;28;45250;-73
2023/10/23 07:31:46;;;;;;;;;7.00;6.00;;;;;;;;5082096;28;45302;-74
2023/10/23 07:34:11;;;;;;;;;4.00;4.00;;;;;;;;5081654;28;46390;-73
2023/10/23 07:36:37;;;;;;;;;7.00;7.00;;;;;;;;5082051;28;45229;-73
2023/10/23 07:39:03;;;;;;;;;3.33;3.33;;;;;;;;5080820;28;45310;-74
2023/10/23 07:41:28;;;;;;;;;5.67;4.67;;;;;;;;5080936;28;45294;-73
2023/10/23 07:43:53;;;;;;;;;5.00;4.00;;;;;;;;5080673;28;46139;-74
2023/10/23 07:46:18;;;;;;;;;3.00;3.00;;;;;;;;5080870;28;45523;-73
2023/10/23 07:48:44;;;;;;;;;3.33;3.00;;;;;;;;5075519;28;45581;-74
2023/10/23 07:51:10;;;;;;;;;5.00;5.00;;;;;;;;5071627;28;45491;-72
2023/10/23 07:53:35;;;;;;;;;6.00;6.00;;;;;;;;5068551;28;46182;-73
2023/10/23 07:56:01;;;;;;;;;6.67;5.00;;;;;;;;5071753;28;45526;-73
2023/10/23 07:58:26;;;;;;;;;5.33;5.33;;;;;;;;5080284;28;45298;-73
2023/10/23 08:01:00;;;;;;;;;4.33;3.33;;;;;;;;5081098;28;45256;-74
2023/10/23 08:03:25;;;;;;;;;4.00;3.33;;;;;;;;5079762;28;47413;-74
2023/10/23 08:05:50;;;;;;;;;4.67;4.67;;;;;;;;5081150;28;45319;-74
2023/10/23 08:08:16;;;;;;;;;4.33;3.67;;;;;;;;5080262;28;45252;-74
2023/10/23 08:10:41;;;;;;;;;3.67;3.67;;;;;;;;5081612;28;45485;-74
2023/10/23 08:13:06;;;;;;;;;1.00;1.00;;;;;;;;5079947;28;47340;-74
2023/10/23 08:15:31;;;;;;;;;4.00;2.67;;;;;;;;5072194;28;45343;-74
2023/10/23 08:17:56;;;;;;;;;2.67;2.00;;;;;;;;5071244;28;45309;-73
2023/10/23 08:20:21;;;;;;;;;3.67;3.67;;;;;;;;5070407;28;45249;-74
2023/10/23 08:22:47;;;;;;;;;3.00;3.00;;;;;;;;5069769;28;45414;-74
2023/10/23 08:25:12;;;;;;;;;2.67;2.67;;;;;;;;5070040;28;45543;-74
2023/10/23 08:27:37;;;;;;;;;3.33;3.33;;;;;;;;5069087;28;45217;-74
2023/10/23 08:30:04;;;;;;;;;3.67;3.67;;;;;;;;5073854;27;45445;-75
2023/10/23 08:32:30;;;;;;;;;3.00;3.00;;;;;;;;5079574;28;46064;-73
2023/10/23 08:34:55;;;;;;;;;5.67;5.67;;;;;;;;5079673;28;45594;-73
2023/10/23 08:37:20;;;;;;;;;3.00;3.00;;;;;;;;5081005;28;45290;-73
2023/10/23 08:39:45;;;;;;;;;3.00;3.00;;;;;;;;5079554;28;46283;-73
2023/10/23 08:42:11;;;;;;;;;5.00;3.33;;;;;;;;5080982;28;45321;-73
2023/10/23 08:44:36;;;;;;;;;1.33;1.33;;;;;;;;5079535;28;45323;-74
2023/10/23 08:47:02;;;;;;;;;5.00;4.00;;;;;;;;5080805;28;45267;-74
2023/10/23 08:49:28;;;;;;;;;2.33;2.33;;;;;;;;5080779;28;45432;-73
2023/10/23 08:51:53;;;;;;;;;3.67;2.00;;;;;;;;5080579;28;45354;-75
2023/10/23 08:54:19;;;;;;;;;2.00;2.00;;;;;;;;5079292;28;45280;-74
2023/10/23 08:56:45;;;;;;;;;2.33;2.33;;;;;;;;5080799;28;45337;-75
2023/10/23 08:59:12;;;;;;;;;1.67;1.67;;;;;;;;5080635;28;45443;-73
2023/10/23 09:01:38;;;;;;;;;2.33;2.00;;;;;;;;5080481;28;45365;-74
2023/10/23 09:04:03;;;;;;;;;3.00;3.00;;;;;;;;5079026;28;46189;-75
2023/10/23 09:06:28;;;;;;;;;3.33;3.33;;;;;;;;5079306;28;45299;-75
2023/10/23 09:08:54;;;;;;;;;2.33;1.67;;;;;;;;5080518;28;45419;-75
2023/10/23 09:11:20;;;;;;;;;3.00;3.00;;;;;;;;5078794;27;45721;-75
2023/10/23 09:13:45;;;;;;;;;1.67;1.67;;;;;;;;5076169;28;45694;-74
2023/10/23 09:16:11;;;;;;;;;2.75;2.00;;;;;;;;5079099;28;45255;-73
2023/10/23 09:18:45;;;;;;;;;3.00;3.00;;;;;;;;5078987;28;45477;-72
2023/10/23 09:21:11;;;;;;;;;2.00;2.00;;;;;;;;5074001;28;45330;-73
2023/10/23 09:23:48;;;;;;;;;1.67;1.33;;;;;;;;5067289;28;45507;-73
2023/10/23 09:26:13;;;;;;;;;3.33;2.33;;;;;;;;5070086;28;45439;-73
2023/10/23 09:28:38;;;;;;;;;1.33;1.33;;;;;;;;5062438;27;45412;-74
2023/10/23 09:31:03;;;;;;;;;3.00;3.00;;;;;;;;5064912;28;47504;-73
2023/10/23 09:33:31;;;;;;;;;3.00;1.67;;;;;;;;5068573;28;45561;-73
2023/10/23 09:35:56;;;;;;;;;1.33;1.33;;;;;;;;5069913;28;45318;-73
2023/10/23 09:38:23;;;;;;;;;3.33;2.33;;;;;;;;5077820;28;46078;-73
2023/10/23 09:40:49;;;;;;;;;2.00;2.00;;;;;;;;5078317;28;47409;-74
2023/10/23 09:43:14;;;;;;;;;3.00;1.33;;;;;;;;5078803;28;45282;-74
2023/10/23 09:45:40;;;;;;;;;3.67;3.67;;;;;;;;5077056;28;45546;-74
2023/10/23 09:48:06;;;;;;;;;3.33;3.33;;;;;;;;5058517;28;45649;-74
2023/10/23 09:50:32;;;;;;;;;2.33;2.00;;;;;;;;5068987;28;48191;-73
2023/10/23 09:52:57;;;;;;;;;3.33;3.33;;;;;;;;5077181;28;45359;-75
2023/10/23 09:55:26;;;;;;;;;3.00;2.00;;;;;;;;5075217;28;45246;-74
2023/10/23 09:57:53;;;;;;;;;3.33;3.33;;;;;;;;5072624;27;45705;-74
2023/10/23 10:00:18;;;;;;;;;2.33;2.00;;;;;;;;5064722;28;47503;-74
2023/10/23 10:02:45;;;;;;;;;1.33;1.33;;;;;;;;5074653;27;45432;-74
2023/10/23 10:05:15;;;;;;;;;2.00;2.00;;;;;;;;5076866;28;45363;-75
2023/10/23 10:07:40;;;;;;;;;1.00;1.00;;;;;;;;5082470;27;45392;-75
2023/10/23 10:10:07;;;;;;;;;2.00;2.00;;;;;;;;5080054;28;47007;-74
2023/10/23 10:12:37;;;;;;;;;3.00;3.00;;;;;;;;5080030;27;45833;-74
2023/10/23 10:15:03;;;;;;;;;3.00;2.00;;;;;;;;5081891;27;45350;-75
2023/10/23 10:17:29;;;;;;;;;1.00;1.00;;;;;;;;5083822;27;45566;-76
2023/10/23 10:19:56;;;;;;;;;2.00;2.00;;;;;;;;5082907;28;45999;-76
2023/10/23 10:22:26;;;;;;;;;4.00;3.00;;;;;;;;5078156;28;45421;-75
2023/10/23 10:24:52;;;;;;;;;2.00;0.67;;;;;;;;5075149;28;45364;-75
2023/10/23 10:27:18;;;;;;;;;3.00;2.67;;;;;;;;5084619;28;45310;-75
2023/10/23 10:29:43;;;;;;;;;2.00;2.00;;;;;;;;5097015;27;45405;-75
2023/10/23 10:32:10;;;;;;;;;1.00;1.00;;;;;;;;5104972;27;45297;-74
2023/10/23 10:34:36;;;;;;;;;2.67;2.00;;;;;;;;5100709;27;45355;-74
2023/10/23 10:37:01;;;;;;;;;1.67;1.00;;;;;;;;5083369;28;46600;-74
2023/10/23 10:39:45;;;;;;;;;4.00;3.00;;;;;;;;5083867;28;45378;-76
2023/10/23 10:42:14;;;;;;;;;2.00;2.00;;;;;;;;5083458;27;45306;-75
2023/10/23 10:44:52;;;;;;;;;1.33;1.33;;;;;;;;5082850;28;45327;-75
2023/10/23 10:47:17;;;;;;;;;1.33;1.33;;;;;;;;5081174;28;46117;-75
2023/10/23 10:49:46;;;;;;;;;3.00;3.00;;;;;;;;5090295;28;45321;-78
2023/10/23 10:52:27;;;;;;;;;2.00;2.00;;;;;;;;5088293;28;45326;-78
2023/10/23 10:54:56;;;;;;;;;3.67;3.00;;;;;;;;5077969;27;45330;-78
2023/10/23 10:57:21;;;;;;;;;1.00;1.00;;;;;;;;5075058;28;46265;-77
2023/10/23 10:59:46;;;;;;;;;0.50;0.50;;;;;;;;5077472;27;47175;-74
2023/10/23 11:02:12;;;;;;;;;2.00;2.00;;;;;;;;5073325;28;45346;-75
2023/10/23 11:04:37;;;;;;;;;4.00;2.00;;;;;;;;5076780;28;45239;-74
2023/10/23 11:07:03;;;;;;;;;3.67;3.00;;;;;;;;5072741;28;45336;-75
2023/10/23 11:09:28;;;;;;;;;5.00;3.67;;;;;;;;5072657;28;45375;-75
2023/10/23 11:11:56;;;;;;;;;4.33;4.33;;;;;;;;5071007;28;45411;-74
2023/10/23 11:14:24;;;;;;;;;5.00;3.67;;;;;;;;5069249;28;45307;-75
2023/10/23 11:16:50;;;;;;;;;7.33;6.00;;;;;;;;5073607;28;45530;-75
2023/10/23 11:19:16;;;;;;;;;3.00;3.00;;;;;;;;5081191;28;47091;-77
2023/10/23 11:21:41;;;;;;;;;4.33;2.67;;;;;;;;5083092;28;45365;-75
2023/10/23 11:24:06;;;;;;;;;1.00;1.00;;;;;;;;5082635;28;45313;-75
2023/10/23 11:26:32;;;;;;;;;2.00;2.00;;;;;;;;5083456;28;45295;-75
2023/10/23 11:28:57;;;;;;;;;3.00;3.00;;;;;;;;5088709;27;45454;-75
2023/10/23 11:31:22;;;;;;;;;1.00;1.00;;;;;;;;5092144;27;45769;-75
2023/10/23 11:33:50;;;;;;;;;3.00;2.67;;;;;;;;5070409;28;45220;-74
2023/10/23 11:36:15;;;;;;;;;2.00;1.00;;;;;;;;5073631;28;46247;-75
2023/10/23 11:38:40;;;;;;;;;3.00;3.00;;;;;;;;5081831;28;45318;-74
2023/10/23 11:41:05;;;;;;;;;5.00;4.00;;;;;;;;5081866;28;45128;-75
2023/10/23 11:43:31;;;;;;;;;4.67;2.67;;;;;;;;5071067;28;45659;-76
2023/10/23 11:45:56;;;;;;;;;2.33;2.00;;;;;;;;5072434;28;45362;-75
2023/10/23 11:48:21;;;;;;;;;4.67;3.33;;;;;;;;5068902;28;47392;-75
2023/10/23 11:50:47;;;;;;;;;3.67;3.67;;;;;;;;5072403;28;45401;-76
2023/10/23 11:53:14;;;;;;;;;4.67;4.00;;;;;;;;5069329;28;45356;-75
2023/10/23 11:55:39;;;;;;;;;4.00;3.00;;;;;;;;5071516;28;45507;-76
2023/10/23 11:58:04;;;;;;;;;3.33;3.33;;;;;;;;5072853;28;45787;-75
2023/10/23 12:00:34;;;;;;;;;7.33;6.00;;;;;;;;5070771;28;45280;-76
2023/10/23 12:02:59;;;;;;;;;6.67;5.00;;;;;;;;5077921;27;45381;-76
2023/10/23 12:05:25;;;;;;;;;4.00;4.00;;;;;;;;5070128;28;45382;-76
2023/10/23 12:07:54;;;;;;;;;4.00;3.67;;;;;;;;5070351;28;46127;-75
2023/10/23 12:10:20;;;;;;;;;4.33;4.00;;;;;;;;5068088;28;46061;-75
2023/10/23 12:12:46;;;;;;;;;5.33;4.00;;;;;;;;5070744;28;45358;-76
2023/10/23 12:15:13;;;;;;;;;6.67;6.67;;;;;;;;5070083;28;46970;-76
2023/10/23 12:17:38;;;;;;;;;5.00;5.00;;;;;;;;5069273;28;45412;-75
2023/10/23 12:20:07;;;;;;;;;7.33;7.00;;;;;;;;5071049;28;45300;-75
2023/10/23 12:22:32;;;;;;;;;3.00;3.00;;;;;;;;5071544;28;45526;-75
2023/10/23 12:24:57;;;;;;;;;6.00;4.33;;;;;;;;5066931;28;47311;-76
2023/10/23 12:27:23;;;;;;;;;4.67;4.67;;;;;;;;5069234;28;45723;-74
2023/10/23 12:29:48;;;;;;;;;4.67;4.33;;;;;;;;5070159;27;45523;-76
2023/10/23 12:32:14;;;;;;;;;4.00;4.00;;;;;;;;5070416;28;45688;-76
2023/10/23 12:34:39;;;;;;;;;6.00;5.00;;;;;;;;5080508;28;45444;-75
2023/10/23 12:37:05;;;;;;;;;7.00;7.00;;;;;;;;5079083;28;48088;-74
2023/10/23 12:39:30;;;;;;;;;5.67;5.67;;;;;;;;5084103;28;45260;-74
2023/10/23 12:41:55;;;;;;;;;10.33;9.33;;;;;;;;5082347;28;45313;-75
2023/10/23 12:44:20;;;;;;;;;5.67;5.67;;;;;;;;5068547;28;46345;-75
2023/10/23 12:46:46;;;;;;;;;6.00;6.00;;;;;;;;5062765;28;46423;-74
2023/10/23 12:49:11;;;;;;;;;8.33;6.67;;;;;;;;5068232;28;45777;-75
2023/10/23 12:51:36;;;;;;;;;6.00;5.33;;;;;;;;5078828;28;45367;-74
2023/10/23 12:54:02;;;;;;;;;7.00;7.00;;;;;;;;5072905;28;45378;-75
2023/10/23 12:56:27;;;;;;;;;5.00;5.00;;;;;;;;5076050;27;45936;-75
2023/10/23 12:58:52;;;;;;;;;5.00;5.00;;;;;;;;5079426;28;45570;-74
2023/10/23 13:01:17;;;;;;;;;7.00;6.00;;;;;;;;5080068;27;45617;-75
2023/10/23 13:03:42;;;;;;;;;5.33;4.67;;;;;;;;5079157;28;45309;-75
2023/10/23 13:06:08;;;;;;;;;6.00;5.00;;;;;;;;5079896;28;46212;-75
2023/10/23 13:08:33;;;;;;;;;6.00;6.00;;;;;;;;5071154;28;45425;-76
2023/10/23 13:10:59;;;;;;;;;7.00;5.00;;;;;;;;5069874;28;45434;-74
2023/10/23 13:13:24;;;;;;;;;6.00;5.67;;;;;;;;5081199;28;45540;-75
2023/10/23 13:15:49;;;;;;;;;7.67;6.67;;;;;;;;5080097;28;45535;-76
2023/10/23 13:18:14;;;;;;;;;5.33;5.00;;;;;;;;5078984;28;45582;-74
2023/10/23 13:20:40;;;;;;;;;4.33;4.33;;;;;;;;5079756;28;45326;-74
2023/10/23 13:23:05;;;;;;;;;8.33;5.00;;;;;;;;5079942;28;45245;-75
2023/10/23 13:25:30;;;;;;;;;6.67;6.67;;;;;;;;5078901;28;47151;-75
2023/10/23 13:27:55;;;;;;;;;9.00;8.00;;;;;;;;5079072;28;45604;-75
2023/10/23 13:30:20;;;;;;;;;8.33;7.00;;;;;;;;5097987;27;45326;-75
2023/10/23 13:32:46;;;;;;;;;6.67;6.67;;;;;;;;5098312;27;47007;-75
2023/10/23 13:35:14;;;;;;;;;9.33;7.33;;;;;;;;5084798;27;45508;-74
2023/10/23 13:37:39;;;;;;;;;8.67;7.00;;;;;;;;5078640;28;45748;-74
2023/10/23 13:40:07;;;;;;;;;10.00;10.00;;;;;;;;5078408;28;45366;-75
2023/10/23 13:42:33;;;;;;;;;10.67;10.00;;;;;;;;5079262;28;46338;-75
2023/10/23 13:44:59;;;;;;;;;8.67;8.33;;;;;;;;5078743;28;47022;-74
2023/10/23 13:47:24;;;;;;;;;10.00;9.00;;;;;;;;5078824;28;45537;-75
2023/10/23 13:49:49;;;;;;;;;9.33;9.33;;;;;;;;5080479;28;45350;-75
2023/10/23 13:52:14;;;;;;;;;8.67;7.33;;;;;;;;5081681;28;45414;-75
2023/10/23 13:54:39;;;;;;;;;6.67;6.00;;;;;;;;5081094;28;46659;-75
2023/10/23 13:57:04;;;;;;;;;9.00;7.33;;;;;;;;5080027;28;45430;-76
2023/10/23 13:59:30;;;;;;;;;6.67;6.67;;;;;;;;5078968;28;45515;-75
2023/10/23 14:01:55;;;;;;;;;4.00;4.00;;;;;;;;5064564;28;45522;-78
2023/10/23 14:04:20;;;;;;;;;7.67;6.00;;;;;;;;5059153;28;46483;-76
2023/10/23 14:06:45;;;;;;;;;6.00;6.00;;;;;;;;5057738;28;45288;-76
2023/10/23 14:09:11;;;;;;;;;4.00;4.00;;;;;;;;5057464;28;45540;-78
2023/10/23 14:11:36;;;;;;;;;3.67;3.67;;;;;;;;5058961;28;45304;-76
2023/10/23 14:14:02;;;;;;;;;4.00;4.00;;;;;;;;5057945;28;46283;-74
2023/10/23 14:16:27;;;;;;;;;5.00;5.00;;;;;;;;5057180;28;45351;-75
2023/10/23 14:18:52;;;;;;;;;6.33;4.67;;;;;;;;5057547;28;45529;-76
2023/10/23 14:21:18;;;;;;;;;6.00;6.00;;;;;;;;5057925;28;45389;-74
2023/10/23 14:23:43;;;;;;;;;5.00;5.00;;;;;;;;5058146;28;45254;-74
2023/10/23 14:26:11;;;;;;;;;6.00;5.00;;;;;;;;5057322;28;45770;-74
2023/10/23 14:28:36;;;;;;;;;5.33;5.33;;;;;;;;5062041;27;45402;-76
2023/10/23 14:31:01;;;;;;;;;4.33;4.00;;;;;;;;5066772;28;45263;-75
2023/10/23 14:33:27;;;;;;;;;6.33;6.33;;;;;;;;5067929;28;45449;-76